Kaltag, AK

5:02 PM AKST on February 06, 2016 (GMT -0900)
Kaltag | | Change Station
CLOSE
Current Station
Airport
Location: Kaltag,
Elevation: 200 ft
Nearby Weather Stations

Elev 200 ft 64.32 °N, 158.74 °W | Updated 9 minutes ago

Overcast
Overcast
18 °F
Feels Like 9 °F
N
7
Wind Variable Wind from NNE

Today
High -- | Low -- °F
--% Chance of Precip.
Yesterday
High -- | Low -- °F
Precip. -- in
Pressure 29.77 in
Visibility 10.0 miles
Clouds Mostly Cloudy 2600 ft
Overcast 6000 ft
Windchill 9 °F
Dew Point 10 °F
Humidity 71%
Rainfall 0.00 in
Snow Depth Not available.
10:01 AM 5:37 PM
Waning Crescent, 3% visible
METAR PAKV 070153Z AUTO 03006KT 10SM BKN026 OVC060 M08/M12 A2976 RMK AO2 SLP081 T10781122 TSNO
Pressure 29.77 in
Visibility 10.0 miles
Clouds Mostly Cloudy 2600 ft
Overcast 6000 ft
Windchill 9 °F
Dew Point 10 °F
Humidity 71%
Rainfall 0.00 in
Snow Depth Not available.
10:01 AM 5:37 PM
Waning Crescent, 3% visible
METAR PAKV 070153Z AUTO 03006KT 10SM BKN026 OVC060 M08/M12 A2976 RMK AO2 SLP081 T10781122 TSNO

10-Day Weather Forecast

Almanac

Astronomy

Feb. 06, 2016 Rise Set
Actual Time
Civil Twilight
Nautical Twilight
Astronomical Twilight
Moon
Length of Visible Light
Length of Day
Tomorrow will be .
, % of the Moon is Illuminated

Today's Extremes

State Highs State Lows

Community

WunderPhotos

Upload Photos

1,891,132 photos uploaded!

WunderBlog® & News

Nearby

Air Quality

  Air Quality AQ Index Pollutant
Not available.

Snow Depth

Station Depth Elevation

Earthquake Activity

City Distance Mag. Time & Date
Minimum magnitude displayed is 2.5.

Coastal Water Temperatures

Place Temperature

Stations

Nearby Weather Stations

Station Location Temp. Windchill Dew Point Humidity Wind Precip. Elev Updated Type
                   

Watches & Warnings

There are currently no watches in effect.